Time;durP1;ratioP1;P1;durP2;ratioP2;P2;SDS_P1;SDS_P2;PMS_P1;PMS_P2;Temp;Humidity;BMP_temperature;BMP_pressure;BME280_temperature;BME280_humidity;BME280_pressure;Samples;Min_cycle;Max_cycle;Signal;HPM_P1;HPM_P2
2023/05/08 00:01:18;;;;;;;;;;;15.10;99.90;;;;;;5049336;28;19933;-81
2023/05/08 00:03:48;;;;;;;;;;;15.10;99.90;;;;;;5057231;28;20003;-82
2023/05/08 00:06:15;;;;;;;;;;;15.10;99.90;;;;;;5056944;28;19928;-81
2023/05/08 00:08:42;;;;;;;;;;;15.10;99.90;;;;;;5046101;28;19974;-81
2023/05/08 00:11:10;;;;;;;;;;;15.00;99.90;;;;;;5042361;28;19940;-81
2023/05/08 00:13:37;;;;;;;;;;;15.00;99.90;;;;;;5040676;28;19986;-81
2023/05/08 00:16:04;;;;;;;;;;;14.90;99.90;;;;;;5044434;28;19936;-81
2023/05/08 00:18:31;;;;;;;;;;;14.90;99.90;;;;;;5059341;28;19928;-81
2023/05/08 00:20:58;;;;;;;;;;;14.90;99.90;;;;;;5042142;28;20348;-81
2023/05/08 00:23:25;;;;;;;;;;;14.90;99.90;;;;;;5040199;28;19928;-81
2023/05/08 00:25:52;;;;;;;;;;;14.90;99.90;;;;;;5039142;28;19929;-81
2023/05/08 00:28:20;;;;;;;;;;;14.90;99.90;;;;;;5039593;28;19933;-81
2023/05/08 00:30:47;;;;;;;;;;;14.90;99.90;;;;;;5065684;28;19924;-81
2023/05/08 00:33:14;;;;;;;;;;;14.90;99.90;;;;;;5039657;28;19939;-81
2023/05/08 00:35:41;;;;;;;;;;;15.00;99.90;;;;;;5040323;28;19925;-81
2023/05/08 00:38:10;;;;;;;;;;;14.90;99.90;;;;;;5057872;28;19929;-81
2023/05/08 00:40:41;;;;;;;;;;;15.00;99.90;;;;;;5055267;28;19992;-81
2023/05/08 00:43:09;;;;;;;;;;;;;;;;;;5059615;28;19964;-81
2023/05/08 00:45:39;;;;;;;;;;;15.00;99.90;;;;;;5059433;28;19932;-81
2023/05/08 00:48:07;;;;;;;;;;;15.00;99.90;;;;;;5044787;28;19931;-81
2023/05/08 00:50:37;;;;;;;;;;;14.90;99.90;;;;;;5039620;28;19964;-81
2023/05/08 00:53:04;;;;;;;;;;;14.90;99.90;;;;;;5039886;28;19944;-79
2023/05/08 00:55:32;;;;;;;;;;;14.90;99.90;;;;;;5055887;28;19928;-81
2023/05/08 00:57:59;;;;;;;;;;;14.90;99.90;;;;;;5038844;28;19986;-81
2023/05/08 01:00:26;;;;;;;;;;;14.90;99.90;;;;;;5041675;28;20061;-81
2023/05/08 01:02:54;;;;;;;;;;;14.90;99.90;;;;;;5058515;28;19933;-81
2023/05/08 01:05:21;;;;;;;;;;;14.90;99.90;;;;;;5050485;28;19939;-81
2023/05/08 01:07:48;;;;;;;;;;;14.90;99.90;;;;;;5055893;28;19929;-81
2023/05/08 01:10:18;;;;;;;;;;;14.90;99.90;;;;;;5038509;28;19932;-81
2023/05/08 01:12:50;;;;;;;;;;;14.90;99.90;;;;;;5050271;28;20629;-81
2023/05/08 01:15:18;;;;;;;;;;;14.90;99.90;;;;;;5038242;28;20019;-80
2023/05/08 01:17:51;;;;;;;;;;;14.90;99.90;;;;;;5047343;28;20384;-81
2023/05/08 01:20:29;;;;;;;;;;;14.90;99.90;;;;;;5077079;28;19936;-81
2023/05/08 01:23:17;;;;;;;;;;;14.90;99.90;;;;;;5071875;28;19928;-81
2023/05/08 01:25:53;;;;;;;;;;;14.80;99.90;;;;;;5007803;28;19925;-80
2023/05/08 01:28:39;;;;;;;;;;;14.80;99.90;;;;;;5036047;28;20530;-81
2023/05/08 01:31:11;;;;;;;;;;;14.80;99.90;;;;;;5055926;28;19971;-81
2023/05/08 01:33:46;;;;;;;;;;;14.80;99.90;;;;;;5042750;28;19928;-81
2023/05/08 01:36:18;;;;;;;;;;;14.80;99.90;;;;;;5040310;28;20006;-81
2023/05/08 01:38:52;;;;;;;;;;;14.80;99.90;;;;;;5057068;28;20651;-82
2023/05/08 01:41:25;;;;;;;;;;;14.80;99.90;;;;;;5049975;28;20003;-81
2023/05/08 01:43:55;;;;;;;;;;;14.80;99.90;;;;;;5065509;28;19935;-81
2023/05/08 01:46:25;;;;;;;;;;;14.80;99.90;;;;;;5057021;28;20015;-81
2023/05/08 01:48:59;;;;;;;;;;;14.70;99.90;;;;;;5037664;28;20315;-82
2023/05/08 01:51:28;;;;;;;;;;;14.70;99.90;;;;;;5053972;28;19935;-81
2023/05/08 01:53:57;;;;;;;;;;;14.60;99.90;;;;;;5058429;28;20027;-81
2023/05/08 01:56:25;;;;;;;;;;;14.60;99.90;;;;;;5055148;28;19929;-81
2023/05/08 01:58:54;;;;;;;;;;;14.60;99.90;;;;;;5055954;28;19932;-81
2023/05/08 02:01:24;;;;;;;;;;;14.60;99.90;;;;;;5054176;28;19975;-81
2023/05/08 02:03:51;;;;;;;;;;;14.60;99.90;;;;;;5040266;28;20016;-81
2023/05/08 02:06:21;;;;;;;;;;;14.50;99.90;;;;;;5038609;28;19935;-80
2023/05/08 02:08:48;;;;;;;;;;;14.50;99.90;;;;;;5039777;28;19925;-81
2023/05/08 02:11:17;;;;;;;;;;;14.50;99.90;;;;;;5049413;28;19939;-82
2023/05/08 02:13:44;;;;;;;;;;;14.50;99.90;;;;;;5058421;28;19929;-82
2023/05/08 02:16:12;;;;;;;;;;;14.40;99.90;;;;;;5039045;28;19998;-82
2023/05/08 02:18:40;;;;;;;;;;;14.40;99.90;;;;;;5036910;28;19961;-82
2023/05/08 02:21:09;;;;;;;;;;;14.30;99.90;;;;;;5055228;28;19935;-82
2023/05/08 02:23:38;;;;;;;;;;;14.30;99.90;;;;;;5062841;28;19928;-81
2023/05/08 02:26:05;;;;;;;;;;;14.20;99.90;;;;;;5037800;28;19925;-81
2023/05/08 02:28:32;;;;;;;;;;;14.20;99.90;;;;;;5054910;28;19929;-82
2023/05/08 02:31:00;;;;;;;;;;;14.20;99.90;;;;;;5036154;28;20615;-81
2023/05/08 02:33:28;;;;;;;;;;;14.20;99.90;;;;;;5055879;28;19964;-81
2023/05/08 02:35:56;;;;;;;;;;;14.10;99.90;;;;;;5037467;28;19928;-81
2023/05/08 02:38:23;;;;;;;;;;;14.10;99.90;;;;;;5036858;28;20011;-82
2023/05/08 02:40:54;;;;;;;;;;;14.10;99.90;;;;;;5046743;28;19989;-82
2023/05/08 02:43:22;;;;;;;;;;;14.10;99.90;;;;;;5056106;28;19936;-82
2023/05/08 02:45:52;;;;;;;;;;;14.10;99.90;;;;;;5046600;28;19929;-82
2023/05/08 02:48:25;;;;;;;;;;;14.10;99.90;;;;;;5035598;28;19933;-81
2023/05/08 02:50:56;;;;;;;;;;;14.10;99.90;;;;;;5035954;28;20031;-81
2023/05/08 02:53:25;;;;;;;;;;;14.10;99.90;;;;;;5036913;28;20035;-81
2023/05/08 02:55:57;;;;;;;;;;;14.10;99.90;;;;;;5053122;28;19967;-81
2023/05/08 02:58:29;;;;;;;;;;;14.10;99.90;;;;;;5037747;28;20012;-82
2023/05/08 03:00:58;;;;;;;;;;;14.10;99.90;;;;;;5037716;28;19912;-80
2023/05/08 03:03:26;;;;;;;;;;;14.10;99.90;;;;;;5040002;28;20061;-80
2023/05/08 03:05:54;;;;;;;;;;;14.10;99.90;;;;;;5041983;28;19935;-81
2023/05/08 03:08:24;;;;;;;;;;;14.40;99.90;;;;;;5041323;28;19978;-80
2023/05/08 03:10:54;;;;;;;;;;;14.10;99.90;;;;;;5040737;28;19924;-80
2023/05/08 03:13:22;;;;;;;;;;;14.10;99.90;;;;;;5041921;28;20076;-81
2023/05/08 03:15:54;;;;;;;;;;;14.10;99.90;;;;;;5040932;28;19992;-81
2023/05/08 03:18:23;;;;;;;;;;;14.10;99.90;;;;;;5041584;28;19936;-81
2023/05/08 03:20:52;;;;;;;;;;;14.10;99.90;;;;;;5050727;28;19925;-81
2023/05/08 03:23:22;;;;;;;;;;;14.00;99.90;;;;;;5041207;28;19929;-81
2023/05/08 03:25:48;;;;;;;;;;;14.00;99.90;;;;;;5040556;28;20030;-81
2023/05/08 03:28:18;;;;;;;;;;;13.90;99.90;;;;;;5040387;28;19925;-80
2023/05/08 03:30:48;;;;;;;;;;;13.90;99.90;;;;;;5065719;28;19924;-81
2023/05/08 03:33:17;;;;;;;;;;;13.90;99.90;;;;;;5046643;28;19960;-81
2023/05/08 03:35:47;;;;;;;;;;;13.80;99.90;;;;;;5046087;28;20329;-81
2023/05/08 03:38:15;;;;;;;;;;;13.60;99.90;;;;;;5046502;28;19913;-81
2023/05/08 03:40:45;;;;;;;;;;;13.80;99.90;;;;;;5050649;28;19928;-81
2023/05/08 03:43:20;;;;;;;;;;;13.70;99.90;;;;;;5065198;28;19944;-81
2023/05/08 03:45:54;;;;;;;;;;;13.70;99.90;;;;;;5063633;28;20022;-80
2023/05/08 03:48:22;;;;;;;;;;;13.60;99.90;;;;;;5056268;28;19929;-81
2023/05/08 03:50:52;;;;;;;;;;;13.60;99.90;;;;;;5057480;28;19935;-81
2023/05/08 03:53:19;;;;;;;;;;;13.60;99.90;;;;;;5042228;28;19936;-80
2023/05/08 03:55:46;;;;;;;;;;;13.60;99.90;;;;;;5037107;28;19929;-80
2023/05/08 03:58:17;;;;;;;;;;;13.60;99.90;;;;;;5036465;28;20027;-80
2023/05/08 04:00:51;;;;;;;;;;;13.50;99.90;;;;;;5039828;28;19935;-80
2023/05/08 04:03:22;;;;;;;;;;;13.50;99.90;;;;;;5056438;28;19928;-80
2023/05/08 04:05:51;;;;;;;;;;;13.50;99.90;;;;;;5058797;28;19977;-80
2023/05/08 04:08:21;;;;;;;;;;;13.50;99.90;;;;;;5056886;28;20616;-80
2023/05/08 04:10:49;;;;;;;;;;;13.60;99.90;;;;;;5029483;28;19936;-80
2023/05/08 04:13:20;;;;;;;;;;;13.60;99.90;;;;;;5056828;28;20007;-80
2023/05/08 04:15:50;;;;;;;;;;;13.60;99.90;;;;;;5048436;28;19931;-80
2023/05/08 04:18:20;;;;;;;;;;;13.60;99.90;;;;;;5057313;28;20019;-80
2023/05/08 04:20:49;;;;;;;;;;;13.70;99.90;;;;;;5043220;28;19919;-80
2023/05/08 04:23:18;;;;;;;;;;;13.70;99.90;;;;;;5035934;28;19956;-80
2023/05/08 04:25:47;;;;;;;;;;;13.80;99.90;;;;;;5054237;28;19928;-80
2023/05/08 04:28:16;;;;;;;;;;;13.80;99.90;;;;;;5035308;28;19928;-80
2023/05/08 04:30:44;;;;;;;;;;;13.90;99.90;;;;;;5037251;28;19928;-81
2023/05/08 04:33:12;;;;;;;;;;;13.90;99.90;;;;;;5036457;28;19947;-81
2023/05/08 04:35:39;;;;;;;;;;;14.00;99.90;;;;;;5037016;28;20291;-80
2023/05/08 04:38:09;;;;;;;;;;;14.00;99.90;;;;;;5037733;28;19978;-81
2023/05/08 04:40:35;;;;;;;;;;;14.10;99.90;;;;;;5045661;28;20013;-81
2023/05/08 04:43:03;;;;;;;;;;;14.10;99.90;;;;;;5053600;28;19925;-80
2023/05/08 04:45:30;;;;;;;;;;;14.30;99.90;;;;;;5038530;28;19929;-80
2023/05/08 04:47:57;;;;;;;;;;;14.30;99.90;;;;;;5038527;28;19932;-81
2023/05/08 04:50:25;;;;;;;;;;;14.40;99.90;;;;;;5039238;28;20392;-81
2023/05/08 04:52:52;;;;;;;;;;;14.50;99.90;;;;;;5038661;28;19939;-80
2023/05/08 04:55:21;;;;;;;;;;;15.40;99.90;;;;;;5037349;28;19931;-81
2023/05/08 04:57:48;;;;;;;;;;;14.60;99.90;;;;;;5038002;28;20003;-80
2023/05/08 05:00:16;;;;;;;;;;;14.70;99.90;;;;;;5036149;28;19945;-82
2023/05/08 05:02:44;;;;;;;;;;;14.80;99.90;;;;;;5038262;28;19948;-80
2023/05/08 05:05:11;;;;;;;;;;;14.90;99.90;;;;;;5039441;28;19964;-81
2023/05/08 05:07:38;;;;;;;;;;;15.00;99.90;;;;;;5043555;28;19999;-82
2023/05/08 05:10:06;;;;;;;;;;;15.00;99.90;;;;;;5048639;28;19936;-81
2023/05/08 05:12:35;;;;;;;;;;;15.10;99.90;;;;;;5052843;28;20439;-83
2023/05/08 05:15:02;;;;;;;;;;;15.10;99.90;;;;;;5059495;28;20027;-82
2023/05/08 05:17:33;;;;;;;;;;;15.20;99.90;;;;;;5037161;28;20015;-82
2023/05/08 05:20:01;;;;;;;;;;;15.30;99.90;;;;;;5037436;28;19975;-82
2023/05/08 05:22:28;;;;;;;;;;;15.40;99.90;;;;;;5037854;28;19955;-84
2023/05/08 05:24:58;;;;;;;;;;;15.50;99.90;;;;;;5037444;28;19928;-82
2023/05/08 05:27:26;;;;;;;;;;;15.50;99.90;;;;;;5033175;28;19935;-82
2023/05/08 05:29:54;;;;;;;;;;;15.50;99.90;;;;;;5038399;28;19925;-83
2023/05/08 05:32:22;;;;;;;;;;;15.60;99.90;;;;;;5063984;28;19931;-83
2023/05/08 05:34:49;;;;;;;;;;;15.70;99.90;;;;;;5063471;28;19928;-82
2023/05/08 05:37:16;;;;;;;;;;;15.70;99.90;;;;;;5064572;28;19925;-83
2023/05/08 05:39:44;;;;;;;;;;;15.80;99.90;;;;;;5069117;28;19916;-84
2023/05/08 05:42:11;;;;;;;;;;;16.10;99.90;;;;;;5046471;28;19935;-83
2023/05/08 05:44:38;;;;;;;;;;;16.40;99.90;;;;;;5046328;28;20315;-83
2023/05/08 05:47:08;;;;;;;;;;;16.40;99.90;;;;;;5046897;28;19928;-84
2023/05/08 05:49:36;;;;;;;;;;;16.50;99.90;;;;;;5052469;28;19925;-83
2023/05/08 05:52:04;;;;;;;;;;;16.70;99.90;;;;;;5044326;28;20008;-84
2023/05/08 05:54:32;;;;;;;;;;;17.30;99.90;;;;;;5040642;28;19982;-79
2023/05/08 05:56:59;;;;;;;;;;;17.30;99.90;;;;;;5037320;28;19959;-81
2023/05/08 05:59:26;;;;;;;;;;;17.40;99.90;;;;;;5044644;28;19935;-80
2023/05/08 06:01:53;;;;;;;;;;;17.60;99.90;;;;;;5061405;28;19931;-80
2023/05/08 06:04:22;;;;;;;;;;;17.80;99.90;;;;;;5062944;28;19936;-80
2023/05/08 06:06:49;;;;;;;;;;;18.10;99.90;;;;;;5065273;28;19940;-82
2023/05/08 06:09:17;;;;;;;;;;;18.30;99.90;;;;;;5043433;28;19930;-84
2023/05/08 06:11:45;;;;;;;;;;;18.40;99.90;;;;;;5049324;28;19932;-84
2023/05/08 06:14:12;;;;;;;;;;;18.50;99.90;;;;;;5037094;28;20004;-85
2023/05/08 06:16:39;;;;;;;;;;;18.80;99.90;;;;;;5037528;28;19929;-85
2023/05/08 06:19:07;;;;;;;;;;;19.00;99.90;;;;;;5036954;28;19936;-80
2023/05/08 06:21:35;;;;;;;;;;;19.20;99.90;;;;;;5037854;28;19929;-82
2023/05/08 06:24:02;;;;;;;;;;;19.50;99.90;;;;;;5042172;28;19951;-85
2023/05/08 06:26:29;;;;;;;;;;;19.80;99.90;;;;;;5036333;23;19935;-74
2023/05/08 06:28:56;;;;;;;;;;;19.70;99.90;;;;;;5035693;28;19928;-73
2023/05/08 06:31:23;;;;;;;;;;;19.70;99.90;;;;;;5024297;28;20434;-73
2023/05/08 06:33:50;;;;;;;;;;;19.60;99.90;;;;;;5025070;28;20337;-73
2023/05/08 06:36:16;;;;;;;;;;;20.00;99.90;;;;;;5026644;28;19929;-73
2023/05/08 06:38:44;;;;;;;;;;;22.20;99.90;;;;;;5027172;28;19929;-73
2023/05/08 06:41:11;;;;;;;;;;;24.70;99.90;;;;;;5032675;28;20437;-73
2023/05/08 06:43:38;;;;;;;;;;;26.10;99.90;;;;;;5026902;28;19929;-73
2023/05/08 06:46:05;;;;;;;;;;;26.30;99.90;;;;;;5029396;28;20318;-72
2023/05/08 06:48:31;;;;;;;;;;;26.00;99.90;;;;;;5041470;28;19925;-73
2023/05/08 06:50:58;;;;;;;;;;;25.60;99.90;;;;;;5035115;28;19929;-72
2023/05/08 06:53:25;;;;;;;;;;;25.60;99.90;;;;;;5028177;28;19936;-73
2023/05/08 06:55:53;;;;;;;;;;;26.90;99.90;;;;;;5029000;28;19925;-73
2023/05/08 06:58:20;;;;;;;;;;;28.50;99.90;;;;;;5026371;28;19956;-74
2023/05/08 07:00:46;;;;;;;;;;;30.20;99.90;;;;;;5026490;28;20333;-73
2023/05/08 07:03:13;;;;;;;;;;;31.00;99.90;;;;;;5037612;28;19929;-73
2023/05/08 07:05:40;;;;;;;;;;;31.00;99.90;;;;;;5029881;28;19950;-73
2023/05/08 07:08:07;;;;;;;;;;;31.10;99.90;;;;;;5028025;28;19968;-73
2023/05/08 07:10:34;;;;;;;;;;;31.70;99.90;;;;;;5036306;28;19959;-73
2023/05/08 07:13:02;;;;;;;;;;;32.40;99.90;;;;;;5026768;28;20362;-74
2023/05/08 07:15:31;;;;;;;;;;;33.20;99.90;;;;;;5027200;28;19939;-74
2023/05/08 07:17:57;;;;;;;;;;;33.50;99.90;;;;;;5030329;28;19929;-74
2023/05/08 07:20:24;;;;;;;;;;;33.60;99.90;;;;;;5028142;28;19936;-74
2023/05/08 07:22:51;;;;;;;;;;;33.70;99.90;;;;;;5031050;28;19929;-74
2023/05/08 07:25:17;;;;;;;;;;;34.60;99.90;;;;;;5026207;28;20146;-75
2023/05/08 07:27:44;;;;;;;;;;;34.70;99.90;;;;;;5023677;28;19990;-75
2023/05/08 07:30:13;;;;;;;;;;;34.40;99.90;;;;;;5025492;28;20487;-75
2023/05/08 07:32:39;;;;;;;;;;;33.90;99.90;;;;;;5024485;28;19933;-74
2023/05/08 07:35:08;;;;;;;;;;;33.80;99.90;;;;;;5019330;28;20347;-74
2023/05/08 07:37:35;;;;;;;;;;;34.00;99.90;;;;;;5026752;28;19929;-74
2023/05/08 07:40:02;;;;;;;;;;;34.50;99.90;;;;;;5027543;28;19925;-75
2023/05/08 07:42:29;;;;;;;;;;;35.10;99.90;;;;;;5020820;28;19945;-75
2023/05/08 07:44:56;;;;;;;;;;;35.20;99.90;;;;;;5021264;28;19932;-75
2023/05/08 07:47:24;;;;;;;;;;;35.70;99.30;;;;;;5017371;28;19929;-75
2023/05/08 07:49:53;;;;;;;;;;;35.80;98.00;;;;;;5530918;22;19912;-75
2023/05/08 07:52:20;;;;;;;;;;;35.80;98.10;;;;;;5074816;28;20017;-74
2023/05/08 07:54:47;;;;;;;;;;;35.80;95.90;;;;;;5064662;28;20011;-75
2023/05/08 07:57:14;;;;;;;;;;;35.60;96.00;;;;;;5064428;28;19928;-73
2023/05/08 07:59:41;;;;;;;;;;;36.50;98.00;;;;;;5065316;28;19928;-73
2023/05/08 08:02:08;;;;;;;;;;;36.80;95.60;;;;;;5065682;28;20396;-73
2023/05/08 08:04:37;;;;;;;;;;;36.80;93.60;;;;;;5066910;28;19934;-75
2023/05/08 08:07:04;;;;;;;;;;;36.50;92.10;;;;;;5067224;28;19952;-74
2023/05/08 08:09:31;;;;;;;;;;;34.20;93.30;;;;;;5064698;28;20009;-74
2023/05/08 08:11:57;;;;;;;;;;;33.70;92.70;;;;;;5081029;28;20053;-74
2023/05/08 08:14:26;;;;;;;;;;;32.30;93.30;;;;;;5063399;28;19943;-74
2023/05/08 08:16:53;;;;;;;;;;;31.10;94.10;;;;;;5064292;28;19966;-74
2023/05/08 08:19:20;;;;;;;;;;;29.40;95.30;;;;;;5065573;28;19932;-74
2023/05/08 08:21:48;;;;;;;;;;;29.30;96.80;;;;;;5068598;28;20394;-74
2023/05/08 08:24:15;;;;;;;;;;;29.40;96.90;;;;;;5068506;28;19939;-74
2023/05/08 08:26:42;;;;;;;;;;;29.50;97.50;;;;;;5069021;28;19951;-74
2023/05/08 08:29:09;;;;;;;;;;;29.40;97.80;;;;;;5065444;28;19935;-74
2023/05/08 08:31:35;;;;;;;;;;;29.50;97.70;;;;;;5067629;28;19935;-74
2023/05/08 08:34:02;;;;;;;;;;;29.60;98.20;;;;;;5069050;28;19932;-74
2023/05/08 08:36:29;;;;;;;;;;;29.20;97.70;;;;;;5069089;28;19924;-74
2023/05/08 08:38:58;;;;;;;;;;;28.30;98.40;;;;;;5067709;28;20011;-74
2023/05/08 08:41:26;;;;;;;;;;;28.30;98.70;;;;;;5068298;28;19935;-74
2023/05/08 08:43:54;;;;;;;;;;;27.90;99.00;;;;;;5088474;28;19932;-75
2023/05/08 08:46:24;;;;;;;;;;;27.40;98.50;;;;;;5076541;28;19939;-75
2023/05/08 08:48:53;;;;;;;;;;;26.50;98.90;;;;;;5076517;28;19997;-75
2023/05/08 08:51:24;;;;;;;;;;;26.60;99.10;;;;;;5070852;28;20037;-75
2023/05/08 08:53:51;;;;;;;;;;;;;;;;;;5059340;28;19932;-75
2023/05/08 08:56:21;;;;;;;;;;;26.50;99.90;;;;;;5060749;28;19955;-79
2023/05/08 08:58:54;;;;;;;;;;;26.20;99.90;;;;;;5065461;28;19982;-78
2023/05/08 09:01:21;;;;;;;;;;;27.00;99.90;;;;;;5069090;28;19935;-78
2023/05/08 09:03:48;;;;;;;;;;;27.30;99.90;;;;;;5072952;28;19936;-78
2023/05/08 09:06:16;;;;;;;;;;;27.60;99.90;;;;;;5070488;28;19935;-78
2023/05/08 09:08:42;;;;;;;;;;;27.80;99.90;;;;;;5066278;28;19940;-79
2023/05/08 09:11:09;;;;;;;;;;;27.60;99.90;;;;;;5060655;28;19932;-78
2023/05/08 09:13:37;;;;;;;;;;;27.30;99.90;;;;;;5063301;28;20015;-78
2023/05/08 09:16:04;;;;;;;;;;;26.70;99.90;;;;;;5067017;28;20462;-78
2023/05/08 09:18:31;;;;;;;;;;;26.70;99.90;;;;;;5066539;28;19982;-78
2023/05/08 09:20:59;;;;;;;;;;;26.60;99.90;;;;;;5068182;28;20415;-78
2023/05/08 09:23:26;;;;;;;;;;;26.60;99.90;;;;;;5067811;28;20396;-78
2023/05/08 09:25:53;;;;;;;;;;;27.90;99.90;;;;;;5063217;28;19936;-78
2023/05/08 09:28:20;;;;;;;;;;;26.10;99.60;;;;;;5064639;28;20008;-78
2023/05/08 09:30:55;;;;;;;;;;;25.80;99.70;;;;;;5069004;28;19932;-79
2023/05/08 09:33:24;;;;;;;;;;;25.60;99.90;;;;;;5067676;28;19932;-78
2023/05/08 09:35:51;;;;;;;;;;;25.50;99.90;;;;;;5062152;28;19937;-77
2023/05/08 09:38:32;;;;;;;;;;;26.90;99.90;;;;;;5067163;28;20309;-77
2023/05/08 09:41:05;;;;;;;;;;;25.50;99.90;;;;;;5067967;28;20015;-78
2023/05/08 09:43:32;;;;;;;;;;;25.40;99.90;;;;;;5071283;28;19929;-78
2023/05/08 09:46:19;;;;;;;;;;;25.30;99.90;;;;;;5070622;28;19939;-75
2023/05/08 09:48:45;;;;;;;;;;;25.00;99.90;;;;;;5070670;28;19935;-77
2023/05/08 09:51:12;;;;;;;;;;;25.10;99.90;;;;;;5069776;28;19937;-78
2023/05/08 09:53:39;;;;;;;;;;;25.10;99.90;;;;;;5071804;28;19979;-77
2023/05/08 09:56:06;;;;;;;;;;;24.90;99.90;;;;;;5076785;28;19928;-77
2023/05/08 09:58:37;;;;;;;;;;;24.70;99.90;;;;;;5079571;28;19936;-77
2023/05/08 10:01:07;;;;;;;;;;;24.70;99.90;;;;;;5075040;28;20381;-77
2023/05/08 10:03:46;;;;;;;;;;;24.60;99.90;;;;;;5083345;28;19974;-79
2023/05/08 10:06:13;;;;;;;;;;;24.50;99.90;;;;;;5082786;28;20191;-79
2023/05/08 10:08:41;;;;;;;;;;;25.50;99.90;;;;;;5082194;28;19924;-79
2023/05/08 10:11:13;;;;;;;;;;;24.20;99.90;;;;;;5073340;28;20137;-79
2023/05/08 10:13:40;;;;;;;;;;;24.20;99.90;;;;;;5068910;28;19924;-79
2023/05/08 10:16:10;;;;;;;;;;;24.10;99.90;;;;;;5069566;28;20411;-79
2023/05/08 10:18:38;;;;;;;;;;;24.00;99.90;;;;;;5062428;28;19990;-79
2023/05/08 10:21:07;;;;;;;;;;;23.80;99.90;;;;;;5057645;28;19963;-79
2023/05/08 10:23:34;;;;;;;;;;;23.70;99.90;;;;;;5063104;28;19937;-79
2023/05/08 10:26:07;;;;;;;;;;;23.50;99.90;;;;;;5081456;28;19928;-79
2023/05/08 10:28:38;;;;;;;;;;;23.40;99.90;;;;;;5063905;28;20470;-79
2023/05/08 10:31:07;;;;;;;;;;;23.40;99.90;;;;;;5061903;28;20030;-79
2023/05/08 10:33:36;;;;;;;;;;;23.30;99.90;;;;;;5063683;28;19936;-79
2023/05/08 10:36:03;;;;;;;;;;;23.30;99.90;;;;;;5063492;28;19928;-80
2023/05/08 10:38:30;;;;;;;;;;;23.30;99.90;;;;;;5058066;28;20524;-79
2023/05/08 10:41:00;;;;;;;;;;;24.20;99.90;;;;;;5067492;28;19994;-79
2023/05/08 10:43:28;;;;;;;;;;;23.30;99.90;;;;;;5070465;28;19925;-80
2023/05/08 10:45:56;;;;;;;;;;;23.40;99.90;;;;;;5064036;28;20388;-80
2023/05/08 10:48:26;;;;;;;;;;;23.70;99.90;;;;;;5065144;28;19960;-80
2023/05/08 10:50:58;;;;;;;;;;;24.00;99.90;;;;;;5067370;28;19928;-80
2023/05/08 10:53:31;;;;;;;;;;;24.30;99.90;;;;;;5062458;28;19928;-78
2023/05/08 10:55:58;;;;;;;;;;;24.40;99.90;;;;;;5059835;28;19929;-78
2023/05/08 10:58:30;;;;;;;;;;;24.50;99.90;;;;;;5066771;28;19994;-79
2023/05/08 11:01:13;;;;;;;;;;;24.50;99.90;;;;;;5064900;28;19947;-79
2023/05/08 11:03:41;;;;;;;;;;;24.30;99.90;;;;;;5068898;28;20014;-79
2023/05/08 11:06:10;;;;;;;;;;;24.20;99.90;;;;;;5065650;28;19972;-78
2023/05/08 11:08:43;;;;;;;;;;;24.30;99.90;;;;;;5068889;28;19928;-80
2023/05/08 11:11:13;;;;;;;;;;;24.40;99.90;;;;;;5067510;28;19951;-79
2023/05/08 11:13:42;;;;;;;;;;;24.60;99.90;;;;;;5066748;28;19936;-79
2023/05/08 11:16:09;;;;;;;;;;;24.80;99.90;;;;;;5068703;28;20020;-80
2023/05/08 11:18:36;;;;;;;;;;;24.90;99.90;;;;;;5068855;28;19940;-78
2023/05/08 11:21:04;;;;;;;;;;;25.10;99.90;;;;;;5570179;22;19924;-78
2023/05/08 11:23:33;;;;;;;;;;;25.20;99.90;;;;;;5047638;28;19972;-77
2023/05/08 11:26:01;;;;;;;;;;;25.30;99.90;;;;;;5049725;28;20413;-78
2023/05/08 11:28:28;;;;;;;;;;;25.10;99.90;;;;;;5030397;28;19928;-78
2023/05/08 11:30:55;;;;;;;;;;;25.00;99.90;;;;;;5030996;28;19932;-78
2023/05/08 11:33:22;;;;;;;;;;;25.00;99.90;;;;;;5032649;28;19956;-75
2023/05/08 11:35:55;;;;;;;;;;;25.10;99.90;;;;;;5025927;28;20167;-75
2023/05/08 11:38:26;;;;;;;;;;;25.30;99.90;;;;;;5028473;28;19933;-75
2023/05/08 11:40:59;;;;;;;;;;;25.50;99.90;;;;;;5030403;28;19948;-75
2023/05/08 11:43:26;;;;;;;;;;;25.60;99.90;;;;;;5038807;28;19925;-75
2023/05/08 11:45:54;;;;;;;;;;;25.50;99.90;;;;;;5005386;28;19929;-74
2023/05/08 11:48:21;;;;;;;;;;;25.70;99.90;;;;;;5030486;28;19929;-75
2023/05/08 11:50:47;;;;;;;;;;;25.90;99.90;;;;;;5031705;28;20386;-75
2023/05/08 11:53:15;;;;;;;;;;;25.80;99.90;;;;;;5024747;28;19929;-75
2023/05/08 11:55:42;;;;;;;;;;;25.80;99.90;;;;;;5031929;28;20301;-75
2023/05/08 11:58:13;;;;;;;;;;;25.60;99.90;;;;;;5028150;28;20373;-75
2023/05/08 12:00:43;;;;;;;;;;;25.80;99.90;;;;;;5031411;28;19929;-75
2023/05/08 12:03:11;;;;;;;;;;;25.90;99.90;;;;;;5034042;28;19933;-75
2023/05/08 12:05:38;;;;;;;;;;;26.00;99.90;;;;;;5034811;28;19926;-75
2023/05/08 12:08:05;;;;;;;;;;;26.30;99.90;;;;;;5033227;28;19935;-75
2023/05/08 12:10:32;;;;;;;;;;;26.50;99.90;;;;;;5035363;28;20024;-75
2023/05/08 12:12:59;;;;;;;;;;;26.80;99.90;;;;;;5029507;28;19969;-76
2023/05/08 12:15:27;;;;;;;;;;;26.90;99.90;;;;;;5038632;28;19987;-76
2023/05/08 12:18:00;;;;;;;;;;;26.90;99.90;;;;;;5030355;28;19952;-76
2023/05/08 12:20:27;;;;;;;;;;;26.80;99.90;;;;;;5029828;28;19929;-76
2023/05/08 12:22:54;;;;;;;;;;;26.60;99.90;;;;;;5030072;28;20015;-76
2023/05/08 12:25:20;;;;;;;;;;;26.50;99.90;;;;;;5030887;28;19933;-76
2023/05/08 12:27:47;;;;;;;;;;;26.50;99.90;;;;;;5031284;28;19952;-76
2023/05/08 12:30:14;;;;;;;;;;;26.60;99.90;;;;;;5030213;28;19925;-76
2023/05/08 12:32:42;;;;;;;;;;;26.60;99.90;;;;;;5028839;28;20014;-76
2023/05/08 12:35:10;;;;;;;;;;;26.50;99.90;;;;;;5029031;28;19984;-76
2023/05/08 12:37:37;;;;;;;;;;;26.30;99.90;;;;;;5029470;28;19925;-76
2023/05/08 12:40:04;;;;;;;;;;;26.30;99.90;;;;;;5028193;28;19929;-76
2023/05/08 12:42:43;;;;;;;;;;;26.30;99.90;;;;;;5029395;28;19929;-79
2023/05/08 12:45:16;;;;;;;;;;;26.10;99.90;;;;;;5023071;28;19925;-78
2023/05/08 12:47:46;;;;;;;;;;;25.70;99.90;;;;;;5013651;28;19936;-79
2023/05/08 12:50:14;;;;;;;;;;;25.50;99.90;;;;;;5030749;28;19929;-78
2023/05/08 12:52:41;;;;;;;;;;;25.50;99.90;;;;;;5031288;28;19936;-77
2023/05/08 12:55:20;;;;;;;;;;;25.60;99.90;;;;;;5032482;28;19929;-78
2023/05/08 12:57:46;;;;;;;;;;;25.70;99.90;;;;;;5013215;28;20046;-78
2023/05/08 13:00:15;;;;;;;;;;;25.60;99.90;;;;;;5030989;28;19929;-79
2023/05/08 13:02:52;;;;;;;;;;;25.50;99.90;;;;;;5030528;28;20535;-78
2023/05/08 13:05:20;;;;;;;;;;;25.50;99.90;;;;;;5034387;28;19929;-76
2023/05/08 13:07:47;;;;;;;;;;;25.60;99.90;;;;;;5029473;28;20401;-77
2023/05/08 13:10:14;;;;;;;;;;;25.60;99.90;;;;;;5030121;28;19988;-77
2023/05/08 13:12:41;;;;;;;;;;;25.60;99.90;;;;;;5028175;28;20404;-77
2023/05/08 13:15:08;;;;;;;;;;;25.70;99.90;;;;;;5017770;28;19932;-77
2023/05/08 13:17:35;;;;;;;;;;;25.80;99.90;;;;;;5036456;28;19929;-77
2023/05/08 13:20:03;;;;;;;;;;;25.90;99.90;;;;;;5040917;28;19929;-77
2023/05/08 13:22:30;;;;;;;;;;;25.90;99.90;;;;;;5041623;28;20397;-78
2023/05/08 13:24:56;;;;;;;;;;;25.70;99.90;;;;;;5046341;28;19928;-78
2023/05/08 13:27:23;;;;;;;;;;;25.70;99.90;;;;;;5032813;28;19987;-78
2023/05/08 13:29:50;;;;;;;;;;;25.60;99.90;;;;;;5020000;28;20477;-77
2023/05/08 13:32:16;;;;;;;;;;;25.70;99.90;;;;;;5026234;28;19933;-77
2023/05/08 13:34:43;;;;;;;;;;;25.90;99.90;;;;;;5028160;28;19936;-77
2023/05/08 13:37:12;;;;;;;;;;;25.90;99.90;;;;;;5027869;28;19925;-78
2023/05/08 13:39:38;;;;;;;;;;;25.80;99.90;;;;;;5030548;28;20007;-77
2023/05/08 13:42:05;;;;;;;;;;;26.00;99.90;;;;;;5015333;28;20413;-78
2023/05/08 13:44:32;;;;;;;;;;;26.30;99.90;;;;;;5010003;28;20717;-77
2023/05/08 13:46:58;;;;;;;;;;;26.70;99.90;;;;;;5028298;28;19940;-78
2023/05/08 13:49:26;;;;;;;;;;;27.20;99.90;;;;;;5028934;28;19929;-77
2023/05/08 13:51:53;;;;;;;;;;;27.50;99.90;;;;;;5026283;28;19936;-77
2023/05/08 13:54:21;;;;;;;;;;;27.40;99.90;;;;;;5013542;28;19932;-77
2023/05/08 13:56:48;;;;;;;;;;;27.20;99.90;;;;;;5027025;28;19955;-77
2023/05/08 13:59:15;;;;;;;;;;;27.30;99.90;;;;;;5026851;28;19936;-76
2023/05/08 14:01:42;;;;;;;;;;;27.40;99.90;;;;;;5020809;28;19933;-76
2023/05/08 14:04:09;;;;;;;;;;;27.20;99.90;;;;;;5016401;28;19936;-77
2023/05/08 14:06:35;;;;;;;;;;;26.80;99.90;;;;;;5012405;28;19926;-78
2023/05/08 14:09:03;;;;;;;;;;;26.10;99.90;;;;;;5013744;28;19925;-77
2023/05/08 14:11:31;;;;;;;;;;;26.40;99.90;;;;;;5009569;28;20325;-77
2023/05/08 14:13:57;;;;;;;;;;;26.20;99.90;;;;;;5027619;28;19929;-77
2023/05/08 14:16:24;;;;;;;;;;;26.00;99.90;;;;;;5022782;28;20318;-77
2023/05/08 14:18:51;;;;;;;;;;;25.30;99.90;;;;;;5026519;28;19974;-77
2023/05/08 14:21:17;;;;;;;;;;;25.30;99.90;;;;;;5027369;28;20273;-76
2023/05/08 14:23:44;;;;;;;;;;;25.00;99.90;;;;;;5029802;28;19925;-77
2023/05/08 14:26:11;;;;;;;;;;;24.90;99.90;;;;;;5023011;28;19937;-77